sensor_id;sensor_type;location;lat;lon;timestamp;pressure;altitude;pressure_sealevel;temperature;humidity
6853;BME280;3465;42.144;24.722;2023-02-17T00:02:01;143517.56;;;2.36;100.00
6853;BME280;3465;42.144;24.722;2023-02-17T00:04:28;143512.56;;;2.34;100.00
6853;BME280;3465;42.144;24.722;2023-02-17T00:06:55;143500.13;;;2.29;100.00
6853;BME280;3465;42.144;24.722;2023-02-17T00:09:20;143496.41;;;2.27;100.00
6853;BME280;3465;42.144;24.722;2023-02-17T00:11:46;143501.41;;;2.29;100.00
6853;BME280;3465;42.144;24.722;2023-02-17T00:14:12;143508.84;;;2.32;100.00
6853;BME280;3465;42.144;24.722;2023-02-17T00:16:38;143500.13;;;2.29;100.00
6853;BME280;3465;42.144;24.722;2023-02-17T00:19:04;143486.44;;;2.23;100.00
6853;BME280;3465;42.144;24.722;2023-02-17T00:21:57;143477.78;;;2.20;100.00
6853;BME280;3465;42.144;24.722;2023-02-17T00:24:23;143472.81;;;2.18;100.00
6853;BME280;3465;42.144;24.722;2023-02-17T00:26:50;143460.38;;;2.13;100.00
6853;BME280;3465;42.144;24.722;2023-02-17T00:29:15;143454.19;;;2.10;100.00
6853;BME280;3465;42.144;24.722;2023-02-17T00:31:41;143440.50;;;2.05;100.00
6853;BME280;3465;42.144;24.722;2023-02-17T00:34:06;143430.59;;;2.01;100.00
6853;BME280;3465;42.144;24.722;2023-02-17T00:36:32;143430.59;;;2.01;100.00
6853;BME280;3465;42.144;24.722;2023-02-17T00:38:58;143419.34;;;1.96;100.00
6853;BME280;3465;42.144;24.722;2023-02-17T00:41:27;143399.47;;;1.88;100.00
6853;BME280;3465;42.144;24.722;2023-02-17T00:43:52;143398.28;;;1.88;100.00
6853;BME280;3465;42.144;24.722;2023-02-17T00:46:18;143404.47;;;1.90;100.00
6853;BME280;3465;42.144;24.722;2023-02-17T00:48:43;143358.53;;;1.72;100.00
6853;BME280;3465;42.144;24.722;2023-02-17T00:51:10;143375.88;;;1.79;100.00
6853;BME280;3465;42.144;24.722;2023-02-17T00:53:36;143328.69;;;1.60;100.00
6853;BME280;3465;42.144;24.722;2023-02-17T00:56:02;143338.66;;;1.64;100.00
6853;BME280;3465;42.144;24.722;2023-02-17T00:58:27;143318.78;;;1.56;100.00
6853;BME280;3465;42.144;24.722;2023-02-17T01:00:57;143313.78;;;1.54;100.00
6853;BME280;3465;42.144;24.722;2023-02-17T01:03:23;143316.25;;;1.55;100.00
6853;BME280;3465;42.144;24.722;2023-02-17T01:05:48;143303.84;;;1.49;100.00
6853;BME280;3465;42.144;24.722;2023-02-17T01:08:15;143306.34;;;1.51;100.00
6853;BME280;3465;42.144;24.722;2023-02-17T01:10:43;143312.53;;;1.53;100.00
6853;BME280;3465;42.144;24.722;2023-02-17T01:13:10;143313.78;;;1.54;100.00
6853;BME280;3465;42.144;24.722;2023-02-17T01:15:41;143307.56;;;1.51;100.00
6853;BME280;3465;42.144;24.722;2023-02-17T01:18:07;143288.94;;;1.43;100.00
6853;BME280;3465;42.144;24.722;2023-02-17T01:20:39;143281.50;;;1.40;100.00
6853;BME280;3465;42.144;24.722;2023-02-17T01:23:06;143255.44;;;1.30;100.00
6853;BME280;3465;42.144;24.722;2023-02-17T01:25:40;143255.44;;;1.30;100.00
6853;BME280;3465;42.144;24.722;2023-02-17T01:28:06;143267.81;;;1.35;100.00
6853;BME280;3465;42.144;24.722;2023-02-17T01:30:32;143254.19;;;1.29;100.00
6853;BME280;3465;42.144;24.722;2023-02-17T01:32:58;143250.47;;;1.28;100.00
6853;BME280;3465;42.144;24.722;2023-02-17T01:35:23;143249.22;;;1.27;100.00
6853;BME280;3465;42.144;24.722;2023-02-17T01:37:48;143239.31;;;1.23;100.00
6853;BME280;3465;42.144;24.722;2023-02-17T01:40:14;143238.06;;;1.23;100.00
6853;BME280;3465;42.144;24.722;2023-02-17T01:42:41;143187.16;;;1.02;100.00
6853;BME280;3465;42.144;24.722;2023-02-17T01:48:27;143208.22;;;1.11;100.00
6853;BME280;3465;42.144;24.722;2023-02-17T01:53:47;143172.28;;;0.96;100.00
6853;BME280;3465;42.144;24.722;2023-02-17T01:56:15;143137.50;;;0.82;100.00
6853;BME280;3465;42.144;24.722;2023-02-17T01:58:48;143138.75;;;0.83;100.00
6853;BME280;3465;42.144;24.722;2023-02-17T02:01:15;143182.19;;;1.00;100.00
6853;BME280;3465;42.144;24.722;2023-02-17T02:03:42;143190.88;;;1.04;100.00
6853;BME280;3465;42.144;24.722;2023-02-17T02:06:12;143182.19;;;1.00;100.00
6853;BME280;3465;42.144;24.722;2023-02-17T02:09:04;143174.75;;;0.97;100.00
6853;BME280;3465;42.144;24.722;2023-02-17T02:11:31;143152.41;;;0.88;100.00
6853;BME280;3465;42.144;24.722;2023-02-17T02:13:58;143135.03;;;0.81;100.00
6853;BME280;3465;42.144;24.722;2023-02-17T02:35:21;143130.06;;;0.79;100.00
6853;BME280;3465;42.144;24.722;2023-02-17T02:40:43;143094.06;;;0.65;100.00
6853;BME280;3465;42.144;24.722;2023-02-17T02:43:11;143105.22;;;0.69;100.00
6853;BME280;3465;42.144;24.722;2023-02-17T02:45:37;143055.63;;;0.49;100.00
6853;BME280;3465;42.144;24.722;2023-02-17T02:48:03;143054.38;;;0.49;100.00
6853;BME280;3465;42.144;24.722;2023-02-17T03:01:25;142996.06;;;0.25;100.00
6853;BME280;3465;42.144;24.722;2023-02-17T03:04:29;142988.63;;;0.22;100.00
6853;BME280;3465;42.144;24.722;2023-02-17T03:07:21;142973.78;;;0.16;100.00
6853;BME280;3465;42.144;24.722;2023-02-17T03:09:53;142968.78;;;0.14;100.00
6853;BME280;3465;42.144;24.722;2023-02-17T03:12:21;142968.78;;;0.14;100.00
6853;BME280;3465;42.144;24.722;2023-02-17T03:14:52;142958.84;;;0.10;100.00
6853;BME280;3465;42.144;24.722;2023-02-17T03:17:19;142966.28;;;0.13;100.00
6853;BME280;3465;42.144;24.722;2023-02-17T03:19:45;142942.72;;;0.03;100.00
6853;BME280;3465;42.144;24.722;2023-02-17T03:24:40;142971.25;;;0.15;100.00
6853;BME280;3465;42.144;24.722;2023-02-17T03:27:05;142970.00;;;0.15;100.00
6853;BME280;3465;42.144;24.722;2023-02-17T03:29:30;142945.25;;;0.05;100.00
6853;BME280;3465;42.144;24.722;2023-02-17T03:31:56;142953.94;;;0.08;100.00
6853;BME280;3465;42.144;24.722;2023-02-17T03:34:21;142882.00;;;-0.21;100.00
6853;BME280;3465;42.144;24.722;2023-02-17T03:36:47;142922.88;;;-0.05;100.00
6853;BME280;3465;42.144;24.722;2023-02-17T03:39:12;142952.66;;;0.08;100.00
6853;BME280;3465;42.144;24.722;2023-02-17T03:41:37;142916.72;;;-0.07;100.00
6853;BME280;3465;42.144;24.722;2023-02-17T03:44:03;142916.72;;;-0.07;100.00
6853;BME280;3465;42.144;24.722;2023-02-17T03:46:28;142891.91;;;-0.17;100.00
6853;BME280;3465;42.144;24.722;2023-02-17T03:48:54;142854.75;;;-0.32;100.00
6853;BME280;3465;42.144;24.722;2023-02-17T03:51:21;142812.56;;;-0.49;100.00
6853;BME280;3465;42.144;24.722;2023-02-17T03:53:47;142894.41;;;-0.16;100.00
6853;BME280;3465;42.144;24.722;2023-02-17T03:56:13;142874.56;;;-0.24;100.00
6853;BME280;3465;42.144;24.722;2023-02-17T03:58:39;142870.81;;;-0.26;100.00
6853;BME280;3465;42.144;24.722;2023-02-17T04:01:07;142884.47;;;-0.20;100.00
6853;BME280;3465;42.144;24.722;2023-02-17T04:03:33;142877.03;;;-0.23;100.00
6853;BME280;3465;42.144;24.722;2023-02-17T04:05:58;142844.78;;;-0.36;100.00
6853;BME280;3465;42.144;24.722;2023-02-17T04:08:24;142872.06;;;-0.25;100.00
6853;BME280;3465;42.144;24.722;2023-02-17T04:10:54;142873.31;;;-0.25;100.00
6853;BME280;3465;42.144;24.722;2023-02-17T04:13:21;142839.81;;;-0.38;100.00
6853;BME280;3465;42.144;24.722;2023-02-17T04:15:46;142862.16;;;-0.29;100.00
6853;BME280;3465;42.144;24.722;2023-02-17T04:18:12;142848.50;;;-0.35;100.00
6853;BME280;3465;42.144;24.722;2023-02-17T04:20:38;142834.91;;;-0.40;100.00
6853;BME280;3465;42.144;24.722;2023-02-17T04:23:03;142816.28;;;-0.48;100.00
6853;BME280;3465;42.144;24.722;2023-02-17T04:25:29;142771.66;;;-0.66;100.00
6853;BME280;3465;42.144;24.722;2023-02-17T04:27:54;142797.69;;;-0.55;100.00
6853;BME280;3465;42.144;24.722;2023-02-17T04:30:20;142789.03;;;-0.59;100.00
6853;BME280;3465;42.144;24.722;2023-02-17T04:32:45;142780.34;;;-0.62;100.00
6853;BME280;3465;42.144;24.722;2023-02-17T04:35:11;142763.03;;;-0.69;100.00
6853;BME280;3465;42.144;24.722;2023-02-17T04:37:36;142760.50;;;-0.70;100.00
6853;BME280;3465;42.144;24.722;2023-02-17T04:40:01;142761.75;;;-0.70;100.00
6853;BME280;3465;42.144;24.722;2023-02-17T04:42:28;142769.19;;;-0.67;100.00
6853;BME280;3465;42.144;24.722;2023-02-17T04:44:53;142775.41;;;-0.64;100.00
6853;BME280;3465;42.144;24.722;2023-02-17T04:47:19;142781.59;;;-0.62;100.00
6853;BME280;3465;42.144;24.722;2023-02-17T04:49:44;142792.72;;;-0.57;100.00
6853;BME280;3465;42.144;24.722;2023-02-17T04:52:09;142790.28;;;-0.58;100.00
6853;BME280;3465;42.144;24.722;2023-02-17T04:54:35;142775.41;;;-0.64;100.00
6853;BME280;3465;42.144;24.722;2023-02-17T04:57:00;142748.13;;;-0.75;100.00
6853;BME280;3465;42.144;24.722;2023-02-17T04:59:26;142750.63;;;-0.74;100.00
6853;BME280;3465;42.144;24.722;2023-02-17T05:01:51;142766.72;;;-0.68;100.00
6853;BME280;3465;42.144;24.722;2023-02-17T05:04:16;142779.13;;;-0.63;100.00
6853;BME280;3465;42.144;24.722;2023-02-17T05:06:42;142779.13;;;-0.63;100.00
6853;BME280;3465;42.144;24.722;2023-02-17T05:09:07;142754.34;;;-0.73;100.00
6853;BME280;3465;42.144;24.722;2023-02-17T05:11:32;142767.94;;;-0.67;100.00
6853;BME280;3465;42.144;24.722;2023-02-17T05:13:58;142764.22;;;-0.69;100.00
6853;BME280;3465;42.144;24.722;2023-02-17T05:16:23;142753.09;;;-0.73;100.00
6853;BME280;3465;42.144;24.722;2023-02-17T05:18:49;142698.56;;;-0.95;100.00
6853;BME280;3465;42.144;24.722;2023-02-17T05:21:14;142753.09;;;-0.73;100.00
6853;BME280;3465;42.144;24.722;2023-02-17T05:23:39;142743.19;;;-0.77;100.00
6853;BME280;3465;42.144;24.722;2023-02-17T05:26:09;142724.56;;;-0.85;100.00
6853;BME280;3465;42.144;24.722;2023-02-17T05:28:36;142723.38;;;-0.85;100.00
6853;BME280;3465;42.144;24.722;2023-02-17T05:31:02;142766.72;;;-0.68;100.00
6853;BME280;3465;42.144;24.722;2023-02-17T05:33:28;142795.25;;;-0.56;100.00
6853;BME280;3465;42.144;24.722;2023-02-17T05:35:53;142820.00;;;-0.46;100.00
6853;BME280;3465;42.144;24.722;2023-02-17T05:38:19;142837.38;;;-0.39;100.00
6853;BME280;3465;42.144;24.722;2023-02-17T05:40:44;142867.09;;;-0.27;100.00
6853;BME280;3465;42.144;24.722;2023-02-17T05:43:10;142891.91;;;-0.17;100.00
6853;BME280;3465;42.144;24.722;2023-02-17T05:45:35;142885.72;;;-0.20;100.00
6853;BME280;3465;42.144;24.722;2023-02-17T05:48:01;142961.38;;;0.11;100.00
6853;BME280;3465;42.144;24.722;2023-02-17T05:50:26;142982.41;;;0.20;100.00
6853;BME280;3465;42.144;24.722;2023-02-17T05:52:51;143029.53;;;0.39;100.00
6853;BME280;3465;42.144;24.722;2023-02-17T05:55:17;143055.63;;;0.49;100.00
6853;BME280;3465;42.144;24.722;2023-02-17T05:57:42;143058.09;;;0.50;100.00
6853;BME280;3465;42.144;24.722;2023-02-17T06:00:08;143100.31;;;0.67;100.00
6853;BME280;3465;42.144;24.722;2023-02-17T06:02:33;143091.59;;;0.64;100.00
6853;BME280;3465;42.144;24.722;2023-02-17T06:04:59;143152.41;;;0.88;100.00
6853;BME280;3465;42.144;24.722;2023-02-17T06:07:24;143184.66;;;1.01;100.00
6853;BME280;3465;42.144;24.722;2023-02-17T06:09:50;143236.78;;;1.22;100.00
6853;BME280;3465;42.144;24.722;2023-02-17T06:12:15;143254.19;;;1.29;100.00
6853;BME280;3465;42.144;24.722;2023-02-17T06:14:40;143271.59;;;1.36;100.00
6853;BME280;3465;42.144;24.722;2023-02-17T06:17:06;143257.91;;;1.31;100.00
6853;BME280;3465;42.144;24.722;2023-02-17T06:19:31;143250.47;;;1.28;100.00
6853;BME280;3465;42.144;24.722;2023-02-17T06:21:57;143306.34;;;1.51;100.00
6853;BME280;3465;42.144;24.722;2023-02-17T06:24:23;143329.94;;;1.60;100.00
6853;BME280;3465;42.144;24.722;2023-02-17T06:26:48;143364.72;;;1.74;100.00
6853;BME280;3465;42.144;24.722;2023-02-17T06:29:13;143379.59;;;1.80;100.00
6853;BME280;3465;42.144;24.722;2023-02-17T06:31:39;143382.13;;;1.81;100.00
6853;BME280;3465;42.144;24.722;2023-02-17T06:34:04;143402.00;;;1.89;100.00
6853;BME280;3465;42.144;24.722;2023-02-17T06:36:29;143436.78;;;2.03;100.00
6853;BME280;3465;42.144;24.722;2023-02-17T06:38:55;143520.03;;;2.37;100.00
6853;BME280;3465;42.144;24.722;2023-02-17T06:41:20;143639.38;;;2.85;100.00
6853;BME280;3465;42.144;24.722;2023-02-17T06:43:46;143772.47;;;3.39;100.00
6853;BME280;3465;42.144;24.722;2023-02-17T06:46:11;143874.47;;;3.80;98.71
6853;BME280;3465;42.144;24.722;2023-02-17T06:48:36;143937.97;;;4.05;95.59
6853;BME280;3465;42.144;24.722;2023-02-17T06:51:02;144112.28;;;4.76;93.83
6853;BME280;3465;42.144;24.722;2023-02-17T06:53:27;144194.53;;;5.09;89.87
6853;BME280;3465;42.144;24.722;2023-02-17T06:55:53;144290.50;;;5.47;87.52
6853;BME280;3465;42.144;24.722;2023-02-17T06:58:18;144291.72;;;5.48;85.76
6853;BME280;3465;42.144;24.722;2023-02-17T07:00:43;144366.56;;;5.78;84.44
6853;BME280;3465;42.144;24.722;2023-02-17T07:03:09;144315.41;;;5.57;85.01
6853;BME280;3465;42.144;24.722;2023-02-17T07:05:35;144326.66;;;5.62;85.19
6853;BME280;3465;42.144;24.722;2023-02-17T07:08:01;144392.78;;;5.89;84.04
6853;BME280;3465;42.144;24.722;2023-02-17T07:10:27;144442.63;;;6.09;83.65
6853;BME280;3465;42.144;24.722;2023-02-17T07:12:52;144618.56;;;6.79;80.92
6853;BME280;3465;42.144;24.722;2023-02-17T07:15:17;144682.22;;;7.05;79.54
6853;BME280;3465;42.144;24.722;2023-02-17T07:17:43;144827.06;;;7.63;77.19
6853;BME280;3465;42.144;24.722;2023-02-17T07:20:09;145023.28;;;8.42;72.59
6853;BME280;3465;42.144;24.722;2023-02-17T07:22:34;145163.31;;;8.98;68.92
6853;BME280;3465;42.144;24.722;2023-02-17T07:24:59;145209.59;;;9.17;65.77
6853;BME280;3465;42.144;24.722;2023-02-17T07:27:25;145308.41;;;9.56;64.36
6853;BME280;3465;42.144;24.722;2023-02-17T07:29:50;145315.91;;;9.59;63.73
6853;BME280;3465;42.144;24.722;2023-02-17T07:32:16;145343.44;;;9.70;62.94
6853;BME280;3465;42.144;24.722;2023-02-17T07:34:41;145461.16;;;10.18;61.34
6853;BME280;3465;42.144;24.722;2023-02-17T07:37:07;145575.06;;;10.63;60.75
6853;BME280;3465;42.144;24.722;2023-02-17T07:39:33;145655.22;;;10.95;59.27
6853;BME280;3465;42.144;24.722;2023-02-17T07:41:58;145649.00;;;10.93;57.40
6853;BME280;3465;42.144;24.722;2023-02-17T07:44:26;145628.94;;;10.85;56.68
6853;BME280;3465;42.144;24.722;2023-02-17T07:46:52;145730.44;;;11.25;55.92
6853;BME280;3465;42.144;24.722;2023-02-17T07:49:17;145848.28;;;11.73;53.72
6853;BME280;3465;42.144;24.722;2023-02-17T07:51:43;145863.31;;;11.79;52.18
6853;BME280;3465;42.144;24.722;2023-02-17T07:54:08;145884.63;;;11.87;51.30
6853;BME280;3465;42.144;24.722;2023-02-17T07:56:33;145764.25;;;11.39;52.19
6853;BME280;3465;42.144;24.722;2023-02-17T07:58:59;145715.38;;;11.19;53.44
6853;BME280;3465;42.144;24.722;2023-02-17T08:01:25;145659.00;;;10.97;54.14
6853;BME280;3465;42.144;24.722;2023-02-17T08:03:51;145538.75;;;10.49;56.63
6853;BME280;3465;42.144;24.722;2023-02-17T08:06:21;145536.28;;;10.48;56.75
6853;BME280;3465;42.144;24.722;2023-02-17T08:08:48;145453.66;;;10.15;58.22
6853;BME280;3465;42.144;24.722;2023-02-17T08:11:49;145562.53;;;10.58;56.81
6853;BME280;3465;42.144;24.722;2023-02-17T08:14:33;145736.69;;;11.28;54.88
6853;BME280;3465;42.144;24.722;2023-02-17T08:16:58;145829.47;;;11.65;53.58
6853;BME280;3465;42.144;24.722;2023-02-17T08:19:24;145989.97;;;12.29;51.96
6853;BME280;3465;42.144;24.722;2023-02-17T08:21:51;146092.81;;;12.70;49.67
6853;BME280;3465;42.144;24.722;2023-02-17T08:24:16;146230.91;;;13.26;48.43
6853;BME280;3465;42.144;24.722;2023-02-17T08:26:44;146379.06;;;13.85;46.92
6853;BME280;3465;42.144;24.722;2023-02-17T08:29:10;146571.31;;;14.62;45.52
6853;BME280;3465;42.144;24.722;2023-02-17T08:31:36;146738.53;;;15.28;42.93
6853;BME280;3465;42.144;24.722;2023-02-17T08:34:05;146802.72;;;15.54;42.19
6853;BME280;3465;42.144;24.722;2023-02-17T08:36:31;146766.22;;;15.39;41.96
6853;BME280;3465;42.144;24.722;2023-02-17T08:38:57;146766.22;;;15.39;41.96
6853;BME280;3465;42.144;24.722;2023-02-17T08:41:26;146757.38;;;15.36;42.20
6853;BME280;3465;42.144;24.722;2023-02-17T08:43:54;146756.09;;;15.35;41.66
6853;BME280;3465;42.144;24.722;2023-02-17T08:46:20;146983.88;;;16.26;41.08
6853;BME280;3465;42.144;24.722;2023-02-17T08:48:46;147046.81;;;16.51;39.86
6853;BME280;3465;42.144;24.722;2023-02-17T08:51:16;147141.25;;;16.89;39.48
6853;BME280;3465;42.144;24.722;2023-02-17T08:53:42;147264.66;;;17.38;38.87
6853;BME280;3465;42.144;24.722;2023-02-17T08:56:08;147373.03;;;17.81;37.49
6853;BME280;3465;42.144;24.722;2023-02-17T08:58:34;147554.56;;;18.53;36.73
6853;BME280;3465;42.144;24.722;2023-02-17T09:01:00;147637.81;;;18.87;35.95
6853;BME280;3465;42.144;24.722;2023-02-17T09:03:25;147700.88;;;19.12;36.01
6853;BME280;3465;42.144;24.722;2023-02-17T09:05:55;147748.84;;;19.31;35.30
6853;BME280;3465;42.144;24.722;2023-02-17T09:08:20;147640.31;;;18.88;35.02
6853;BME280;3465;42.144;24.722;2023-02-17T09:10:46;147621.44;;;18.80;32.39
6853;BME280;3465;42.144;24.722;2023-02-17T09:13:11;147418.41;;;17.99;31.18
6853;BME280;3465;42.144;24.722;2023-02-17T09:15:37;147396.97;;;17.91;31.52
6853;BME280;3465;42.144;24.722;2023-02-17T09:18:02;147177.78;;;17.03;32.64
6853;BME280;3465;42.144;24.722;2023-02-17T09:20:28;146937.28;;;16.08;33.09
6853;BME280;3465;42.144;24.722;2023-02-17T09:22:53;146842.94;;;15.70;34.34
6853;BME280;3465;42.144;24.722;2023-02-17T09:25:19;146748.56;;;15.32;34.08
6853;BME280;3465;42.144;24.722;2023-02-17T09:27:44;146758.66;;;15.36;34.88
6853;BME280;3465;42.144;24.722;2023-02-17T09:30:10;146883.22;;;15.86;33.63
6853;BME280;3465;42.144;24.722;2023-02-17T09:32:35;146970.00;;;16.21;32.41
6853;BME280;3465;42.144;24.722;2023-02-17T09:35:01;147041.78;;;16.49;32.22
6853;BME280;3465;42.144;24.722;2023-02-17T09:37:30;147022.88;;;16.42;31.38
6853;BME280;3465;42.144;24.722;2023-02-17T09:39:55;147012.81;;;16.38;31.05
6853;BME280;3465;42.144;24.722;2023-02-17T09:42:23;146903.34;;;15.94;31.25
6853;BME280;3465;42.144;24.722;2023-02-17T09:45:10;147171.44;;;17.01;30.93
6853;BME280;3465;42.144;24.722;2023-02-17T09:47:50;147175.22;;;17.02;31.11
6853;BME280;3465;42.144;24.722;2023-02-17T09:50:21;147195.38;;;17.10;31.20
6853;BME280;3465;42.144;24.722;2023-02-17T09:52:56;147197.91;;;17.11;30.67
6853;BME280;3465;42.144;24.722;2023-02-17T09:57:56;147359.19;;;17.76;30.39
6853;BME280;3465;42.144;24.722;2023-02-17T10:03:03;147811.91;;;19.56;27.75
6853;BME280;3465;42.144;24.722;2023-02-17T10:05:37;148180.66;;;21.02;26.83
6853;BME280;3465;42.144;24.722;2023-02-17T10:08:17;148518.19;;;22.36;25.07
6853;BME280;3465;42.144;24.722;2023-02-17T10:10:51;148540.94;;;22.45;24.60
6853;BME280;3465;42.144;24.722;2023-02-17T10:13:20;148477.72;;;22.20;24.94
6853;BME280;3465;42.144;24.722;2023-02-17T10:15:52;148585.25;;;22.63;24.30
6853;BME280;3465;42.144;24.722;2023-02-17T10:18:34;148505.53;;;22.31;25.09
6853;BME280;3465;42.144;24.722;2023-02-17T10:21:03;148709.25;;;23.12;23.93
6853;BME280;3465;42.144;24.722;2023-02-17T10:23:32;148819.34;;;23.56;22.79
6853;BME280;3465;42.144;24.722;2023-02-17T10:37:28;149085.31;;;24.61;22.45
6853;BME280;3465;42.144;24.722;2023-02-17T10:39:58;149009.31;;;24.31;21.98
6853;BME280;3465;42.144;24.722;2023-02-17T10:45:18;149066.28;;;24.54;21.64
6853;BME280;3465;42.144;24.722;2023-02-17T10:47:45;149003.00;;;24.29;21.59
6853;BME280;3465;42.144;24.722;2023-02-17T10:50:20;148830.78;;;23.60;22.51
6853;BME280;3465;42.144;24.722;2023-02-17T10:52:47;148891.53;;;23.84;22.21
6853;BME280;3465;42.144;24.722;2023-02-17T10:55:22;148753.59;;;23.30;22.33
6853;BME280;3465;42.144;24.722;2023-02-17T10:57:53;148799.09;;;23.48;22.14
6853;BME280;3465;42.144;24.722;2023-02-17T11:00:22;148832.00;;;23.61;22.03
6853;BME280;3465;42.144;24.722;2023-02-17T11:02:49;148807.97;;;23.51;21.93
6853;BME280;3465;42.144;24.722;2023-02-17T11:05:42;148875.09;;;23.78;21.03
6853;BME280;3465;42.144;24.722;2023-02-17T11:08:33;148875.09;;;23.78;22.00
6853;BME280;3465;42.144;24.722;2023-02-17T11:11:05;149059.97;;;24.51;21.32
6853;BME280;3465;42.144;24.722;2023-02-17T11:13:35;148987.81;;;24.23;21.03
6853;BME280;3465;42.144;24.722;2023-02-17T11:16:01;149030.84;;;24.40;21.14
6853;BME280;3465;42.144;24.722;2023-02-17T11:18:30;149113.25;;;24.72;21.16
6853;BME280;3465;42.144;24.722;2023-02-17T11:21:08;149174.06;;;24.96;20.62
6853;BME280;3465;42.144;24.722;2023-02-17T11:23:47;148906.72;;;23.90;21.42
6853;BME280;3465;42.144;24.722;2023-02-17T11:26:22;149053.66;;;24.49;21.15
6853;BME280;3465;42.144;24.722;2023-02-17T11:28:48;149104.38;;;24.69;21.21
6853;BME280;3465;42.144;24.722;2023-02-17T11:31:26;149038.44;;;24.43;20.65
6853;BME280;3465;42.144;24.722;2023-02-17T11:33:52;148978.94;;;24.19;21.29
6853;BME280;3465;42.144;24.722;2023-02-17T11:36:28;148954.88;;;24.10;20.66
6853;BME280;3465;42.144;24.722;2023-02-17T11:38:54;149048.59;;;24.47;20.38
6853;BME280;3465;42.144;24.722;2023-02-17T11:41:20;149068.84;;;24.55;19.77
6853;BME280;3465;42.144;24.722;2023-02-17T11:43:57;149101.84;;;24.68;19.49
6853;BME280;3465;42.144;24.722;2023-02-17T11:46:31;148877.59;;;23.79;20.57
6853;BME280;3465;42.144;24.722;2023-02-17T11:57:42;149020.75;;;24.36;19.50
6853;BME280;3465;42.144;24.722;2023-02-17T12:00:17;149028.31;;;24.39;19.72
6853;BME280;3465;42.144;24.722;2023-02-17T12:11:29;149118.31;;;24.74;20.04
6853;BME280;3465;42.144;24.722;2023-02-17T12:17:10;148958.66;;;24.11;19.55
6853;BME280;3465;42.144;24.722;2023-02-17T12:22:28;148906.72;;;23.90;20.05
6853;BME280;3465;42.144;24.722;2023-02-17T12:25:43;148802.91;;;23.49;20.02
6853;BME280;3465;42.144;24.722;2023-02-17T12:33:53;148851.03;;;23.68;20.02
6853;BME280;3465;42.144;24.722;2023-02-17T12:36:24;148829.50;;;23.60;19.57
6853;BME280;3465;42.144;24.722;2023-02-17T12:39:02;148830.78;;;23.60;19.60
6853;BME280;3465;42.144;24.722;2023-02-17T12:41:38;148752.31;;;23.29;19.83
6853;BME280;3465;42.144;24.722;2023-02-17T12:44:18;148743.44;;;23.26;20.49
6853;BME280;3465;42.144;24.722;2023-02-17T12:46:49;148570.06;;;22.57;21.07
6853;BME280;3465;42.144;24.722;2023-02-17T12:49:19;148595.38;;;22.67;20.67
6853;BME280;3465;42.144;24.722;2023-02-17T12:51:51;148506.81;;;22.32;21.32
6853;BME280;3465;42.144;24.722;2023-02-17T13:00:13;148370.25;;;21.78;21.94
6853;BME280;3465;42.144;24.722;2023-02-17T13:02:41;148324.72;;;21.60;21.41
6853;BME280;3465;42.144;24.722;2023-02-17T13:05:24;148271.66;;;21.39;21.31
6853;BME280;3465;42.144;24.722;2023-02-17T13:08:03;148261.53;;;21.35;21.20
6853;BME280;3465;42.144;24.722;2023-02-17T13:10:38;148232.44;;;21.23;22.08
6853;BME280;3465;42.144;24.722;2023-02-17T13:13:05;148264.06;;;21.36;21.65
6853;BME280;3465;42.144;24.722;2023-02-17T13:15:38;148238.78;;;21.25;21.52
6853;BME280;3465;42.144;24.722;2023-02-17T13:18:05;148264.06;;;21.36;21.78
6853;BME280;3465;42.144;24.722;2023-02-17T13:20:50;148203.44;;;21.11;21.94
6853;BME280;3465;42.144;24.722;2023-02-17T13:23:33;148202.16;;;21.11;22.23
6853;BME280;3465;42.144;24.722;2023-02-17T13:26:09;148183.22;;;21.03;21.92
6853;BME280;3465;42.144;24.722;2023-02-17T13:28:38;148203.44;;;21.11;22.68
6853;BME280;3465;42.144;24.722;2023-02-17T13:33:52;148155.34;;;20.92;22.94
6853;BME280;3465;42.144;24.722;2023-02-17T13:41:43;148178.16;;;21.01;23.28
6853;BME280;3465;42.144;24.722;2023-02-17T13:44:30;148165.50;;;20.96;23.03
6853;BME280;3465;42.144;24.722;2023-02-17T13:47:06;148162.97;;;20.95;22.90
6853;BME280;3465;42.144;24.722;2023-02-17T13:49:36;148149.03;;;20.90;22.83
6853;BME280;3465;42.144;24.722;2023-02-17T13:52:18;148141.47;;;20.87;22.56
6853;BME280;3465;42.144;24.722;2023-02-17T13:55:00;148118.72;;;20.78;22.37
6853;BME280;3465;42.144;24.722;2023-02-17T13:57:30;148119.97;;;20.78;23.03
6853;BME280;3465;42.144;24.722;2023-02-17T14:00:15;148032.88;;;20.44;23.16
6853;BME280;3465;42.144;24.722;2023-02-17T14:02:46;148056.84;;;20.53;23.18
6853;BME280;3465;42.144;24.722;2023-02-17T14:05:37;147998.75;;;20.30;23.03
6853;BME280;3465;42.144;24.722;2023-02-17T14:08:11;147973.50;;;20.20;23.16
6853;BME280;3465;42.144;24.722;2023-02-17T14:10:37;147939.41;;;20.07;23.43
6853;BME280;3465;42.144;24.722;2023-02-17T14:13:03;147910.34;;;19.95;23.28
6853;BME280;3465;42.144;24.722;2023-02-17T14:15:28;147952.03;;;20.12;23.57
6853;BME280;3465;42.144;24.722;2023-02-17T14:17:54;147959.66;;;20.15;23.63
6853;BME280;3465;42.144;24.722;2023-02-17T14:20:46;147978.56;;;20.22;24.02
6853;BME280;3465;42.144;24.722;2023-02-17T14:23:12;147955.81;;;20.13;24.19
6853;BME280;3465;42.144;24.722;2023-02-17T14:25:43;147976.06;;;20.21;24.66
6853;BME280;3465;42.144;24.722;2023-02-17T14:28:24;147981.13;;;20.23;24.62
6853;BME280;3465;42.144;24.722;2023-02-17T14:30:50;147988.69;;;20.26;24.85
6853;BME280;3465;42.144;24.722;2023-02-17T14:38:25;147877.53;;;19.82;25.37
6853;BME280;3465;42.144;24.722;2023-02-17T14:40:50;147827.09;;;19.62;26.05
6853;BME280;3465;42.144;24.722;2023-02-17T14:43:17;147808.13;;;19.54;26.00
6853;BME280;3465;42.144;24.722;2023-02-17T14:45:43;147766.53;;;19.38;26.01
6853;BME280;3465;42.144;24.722;2023-02-17T14:48:09;147736.16;;;19.26;26.13
6853;BME280;3465;42.144;24.722;2023-02-17T14:50:35;147721.03;;;19.20;26.46
6853;BME280;3465;42.144;24.722;2023-02-17T14:53:31;147678.19;;;19.03;26.75
6853;BME280;3465;42.144;24.722;2023-02-17T14:56:01;147693.31;;;19.09;27.12
6853;BME280;3465;42.144;24.722;2023-02-17T14:58:29;147654.16;;;18.93;27.50